| time (UTC) | temp C | wind direction | speed KPH | gust KPH | rain 1hr cm | rain 24hr cm | rain mn cm | humidity % | barometer mb |
| 20260508005536 | 32 | 293 | 12.9 | 22.5 | 0.00 | 0.00 | 0.00 | 8 | 1009.9 |
| 20260508004516 | 32 | 270 | 9.7 | 22.5 | 0.00 | 0.00 | 0.00 | 9 | 1009.9 |
| 20260508003516 | 32 | 293 | 11.3 | 22.5 | 0.00 | 0.00 | 0.00 | 9 | 1009.9 |
| 20260508002516 | 32 | 293 | 6.4 | 17.7 | 0.00 | 0.00 | 0.00 | 8 | 1009.9 |
| 20260508001516 | 32 | 293 | 6.4 | 16.1 | 0.00 | 0.00 | 0.00 | 9 | 1009.8 |
| 20260508000537 | 32 | 270 | 12.9 | 22.5 | 0.00 | 0.00 | 0.00 | 9 | 1010.0 |
| 20260507235516 | 32 | 293 | 6.4 | 20.9 | 0.00 | 0.00 | 0.00 | 9 | 1010.0 |
| 20260507234516 | 32 | 293 | 11.3 | 20.9 | 0.00 | 0.00 | 0.00 | 8 | 1010.0 |
| 20260507233516 | 32 | 338 | 6.4 | 16.1 | 0.00 | 0.00 | 0.00 | 8 | 1010.0 |
| 20260507232516 | 32 | 293 | 4.8 | 16.1 | 0.00 | 0.00 | 0.00 | 8 | 1010.0 |
| 20260507231536 | 32 | 293 | 3.2 | 12.9 | 0.00 | 0.00 | 0.00 | 8 | 1010.1 |
| 20260507230517 | 32 | 338 | 8.0 | 19.3 | 0.00 | 0.00 | 0.00 | 9 | 1010.1 |
| 20260507225517 | 32 | 270 | 8.0 | 24.1 | 0.00 | 0.00 | 0.00 | 9 | 1010.0 |
| 20260507224516 | 32 | 293 | 11.3 | 19.3 | 0.00 | 0.00 | 0.00 | 9 | 1010.2 |
| 20260507223517 | 32 | 293 | 14.5 | 30.6 | 0.00 | 0.00 | 0.00 | 9 | 1010.2 |
| 20260507222536 | 32 | 293 | 9.7 | 19.3 | 0.00 | 0.00 | 0.00 | 9 | 1010.5 |
| 20260507221516 | 32 | 270 | 8.0 | 19.3 | 0.00 | 0.00 | 0.00 | 9 | 1010.3 |
| 20260507220516 | 32 | 293 | 8.0 | 19.3 | 0.00 | 0.00 | 0.00 | 9 | 1010.5 |
| 20260507215518 | 32 | 293 | 9.7 | 17.7 | 0.00 | 0.00 | 0.00 | 9 | 1010.7 |
| 20260507214516 | 32 | 293 | 9.7 | 19.3 | 0.00 | 0.00 | 0.00 | 9 | 1010.9 |
| 20260507213536 | 32 | 293 | 8.0 | 17.7 | 0.00 | 0.00 | 0.00 | 10 | 1011.1 |
| 20260507212516 | 32 | 338 | 1.6 | 11.3 | 0.00 | 0.00 | 0.00 | 10 | 1011.2 |
| 20260507211516 | 32 | 293 | 6.4 | 16.1 | 0.00 | 0.00 | 0.00 | 10 | 1011.4 |
| 20260507210517 | 32 | 293 | 8.0 | 19.3 | 0.00 | 0.00 | 0.00 | 10 | 1011.7 |
| 20260507205517 | 32 | 45 | 8.0 | 19.3 | 0.00 | 0.00 | 0.00 | 10 | 1011.7 |
| 20260507204536 | 32 | 293 | 6.4 | 12.9 | 0.00 | 0.00 | 0.00 | 10 | 1011.7 |
| 20260507203516 | 32 | 293 | 4.8 | 17.7 | 0.00 | 0.00 | 0.00 | 10 | 1011.8 |
| 20260507202516 | 32 | 338 | 8.0 | 17.7 | 0.00 | 0.00 | 0.00 | 10 | 1012.0 |
| 20260507201516 | 31 | 248 | 6.4 | 12.9 | 0.00 | 0.00 | 0.00 | 11 | 1012.2 |
| 20260507200516 | 32 | 293 | 6.4 | 12.9 | 0.00 | 0.00 | 0.00 | 10 | 1012.4 |
| 20260507195536 | 32 | 68 | 4.8 | 12.9 | 0.00 | 0.00 | 0.00 | 10 | 1012.6 |
| 20260507194516 | 31 | 23 | 6.4 | 16.1 | 0.00 | 0.00 | 0.00 | 11 | 1012.7 |
| 20260507193516 | 31 | 338 | 6.4 | 11.3 | 0.00 | 0.00 | 0.00 | 11 | 1012.8 |
| 20260507192516 | 31 | 225 | 1.6 | 8.0 | 0.00 | 0.00 | 0.00 | 11 | 1012.9 |
| 20260507191516 | 31 | 270 | 1.6 | 8.0 | 0.00 | 0.00 | 0.00 | 12 | 1013.1 |
| 20260507190537 | 30 | 315 | 3.2 | 11.3 | 0.00 | 0.00 | 0.00 | 13 | 1013.3 |
| 20260507185519 | 31 | 338 | 4.8 | 14.5 | 0.00 | 0.00 | 0.00 | 13 | 1013.5 |
| 20260507184516 | 30 | 45 | 12.9 | 20.9 | 0.00 | 0.00 | 0.00 | 14 | 1013.7 |
| 20260507183516 | 30 | 68 | 4.8 | 9.7 | 0.00 | 0.00 | 0.00 | 15 | 1013.8 |
| 20260507182516 | 30 | 338 | 8.0 | 12.9 | 0.00 | 0.00 | 0.00 | 14 | 1013.7 |
| 20260507181537 | 30 | 45 | 6.4 | 11.3 | 0.00 | 0.00 | 0.00 | 15 | 1013.9 |
| 20260507180515 | 29 | 45 | 9.7 | 17.7 | 0.00 | 0.00 | 0.00 | 16 | 1014.0 |
| 20260507175516 | 28 | 23 | 4.8 | 9.7 | 0.00 | 0.00 | 0.00 | 17 | 1014.0 |
| 20260507174516 | 28 | 45 | 9.7 | 19.3 | 0.00 | 0.00 | 0.00 | 17 | 1014.1 |
| 20260507173516 | 28 | 23 | 6.4 | 14.5 | 0.00 | 0.00 | 0.00 | 18 | 1014.3 |
| 20260507172536 | 28 | 68 | 4.8 | 11.3 | 0.00 | 0.00 | 0.00 | 19 | 1014.4 |
| 20260507171516 | 28 | 45 | 4.8 | 11.3 | 0.00 | 0.00 | 0.00 | 19 | 1014.5 |
| 20260507170515 | 27 | 23 | 8.0 | 16.1 | 0.00 | 0.00 | 0.00 | 19 | 1014.5 |
| 20260507165516 | 27 | 45 | 4.8 | 16.1 | 0.00 | 0.00 | 0.00 | 20 | 1014.5 |
| 20260507164516 | 26 | 248 | 1.6 | 8.0 | 0.00 | 0.00 | 0.00 | 21 | 1014.4 |
| 20260507163538 | 26 | 0.0 | 4.8 | 0.00 | 0.00 | 0.00 | 22 | 1014.6 | |
| 20260507162515 | 25 | 248 | 1.6 | 6.4 | 0.00 | 0.00 | 0.00 | 22 | 1014.7 |
| 20260507161517 | 25 | 270 | 1.6 | 6.4 | 0.00 | 0.00 | 0.00 | 22 | 1014.8 |
| 20260507160516 | 25 | 0.0 | 4.8 | 0.00 | 0.00 | 0.00 | 23 | 1014.9 | |
| 20260507155516 | 24 | 0.0 | 1.6 | 0.00 | 0.00 | 0.00 | 23 | 1014.9 | |
| 20260507154536 | 23 | 0.0 | 1.6 | 0.00 | 0.00 | 0.00 | 24 | 1015.0 | |
| 20260507153515 | 23 | 270 | 1.6 | 6.4 | 0.00 | 0.00 | 0.00 | 25 | 1014.9 |
| 20260507152516 | 22 | 0.0 | 6.4 | 0.00 | 0.00 | 0.00 | 26 | 1014.9 | |
| 20260507151516 | 22 | 248 | 1.6 | 4.8 | 0.00 | 0.00 | 0.00 | 26 | 1014.9 |
| 20260507150515 | 22 | 203 | 1.6 | 6.4 | 0.00 | 0.00 | 0.00 | 26 | 1014.9 |
| 20260507145537 | 22 | 135 | 1.6 | 6.4 | 0.00 | 0.00 | 0.00 | 27 | 1014.9 |
| 20260507144515 | 22 | 158 | 1.6 | 8.0 | 0.00 | 0.00 | 0.00 | 27 | 1014.9 |
| 20260507143515 | 22 | 0.0 | 0.0 | 0.00 | 0.00 | 0.00 | 27 | 1014.9 | |
| 20260507142516 | 23 | 0.0 | 1.6 | 0.00 | 0.00 | 0.00 | 25 | 1014.9 | |
| 20260507141515 | 23 | 0.0 | 0.0 | 0.00 | 0.00 | 0.00 | 27 | 1014.9 | |
| 20260507140536 | 21 | 0.0 | 0.0 | 0.00 | 0.00 | 0.00 | 30 | 1014.6 | |
| 20260507135516 | 20 | 0.0 | 0.0 | 0.00 | 0.00 | 0.00 | 31 | 1014.4 | |
| 20260507134516 | 19 | 0.0 | 0.0 | 0.00 | 0.00 | 0.00 | 32 | 1014.3 | |
| 20260507133519 | 18 | 113 | 3.2 | 8.0 | 0.00 | 0.00 | 0.00 | 34 | 1014.1 |
| 20260507132515 | 17 | 90 | 1.6 | 4.8 | 0.00 | 0.00 | 0.00 | 36 | 1013.9 |
| 20260507131536 | 16 | 0.0 | 1.6 | 0.00 | 0.00 | 0.00 | 38 | 1013.7 | |
| 20260507130515 | -17 | 0.0 | 0.0 | 0.00 | 0.00 | 0.00 | |||
| 20260507125515 | -17 | 0.0 | 0.0 | 0.00 | 0.00 | 0.00 | |||
| 20260507125108 | -17 | 0.0 | 0.0 | 0.00 | 0.00 | 0.00 | |||
| 20260507124016 | -17 | 0.0 | 0.0 | 0.00 | 0.00 | 0.00 | |||
| 20260507123037 | -17 | 0.0 | 0.0 | 0.00 | 0.00 | 0.00 | |||
| 20260507122612 | -17 | 0.0 | 0.0 | 0.00 | 0.00 | 0.00 | |||
| 20260507121515 | -17 | 0.0 | 0.0 | 0.00 | 0.00 | 0.00 | |||
| 20260507120515 | -17 | 0.0 | 0.0 | 0.00 | 0.00 | 0.00 | |||
| 20260507120046 | -17 | 0.0 | 0.0 | 0.00 | 0.00 | 0.00 | |||
| 20260507115035 | -17 | 0.0 | 0.0 | 0.00 | 0.00 | 0.00 | |||
| 20260507114015 | -17 | 0.0 | 0.0 | 0.00 | 0.00 | 0.00 | |||
| 20260507113608 | -17 | 0.0 | 0.0 | 0.00 | 0.00 | 0.00 | |||
| 20260507112516 | -17 | 0.0 | 0.0 | 0.00 | 0.00 | 0.00 | |||
| 20260507111516 | -17 | 0.0 | 0.0 | 0.00 | 0.00 | 0.00 | |||
| 20260507111132 | -17 | 0.0 | 0.0 | 0.00 | 0.00 | 0.00 | |||
| 20260507110015 | -17 | 0.0 | 0.0 | 0.00 | 0.00 | 0.00 | |||
| 20260507105015 | -17 | 0.0 | 0.0 | 0.00 | 0.00 | 0.00 | |||
| 20260507104608 | -17 | 0.0 | 0.0 | 0.00 | 0.00 | 0.00 | |||
| 20260507103515 | -17 | 0.0 | 0.0 | 0.00 | 0.00 | 0.00 | |||
| 20260507102535 | -17 | 0.0 | 0.0 | 0.00 | 0.00 | 0.00 | |||
| 20260507102018 | 13 | 0.0 | 0.0 | 0.00 | 0.00 | 0.00 | 38 | 1013.7 | |
| 20260507101510 | 13 | 0.0 | 1.6 | 0.00 | 0.00 | 0.00 | 38 | 1013.7 | |
| 20260507101016 | 14 | 0.0 | 1.6 | 0.00 | 0.00 | 0.00 | 38 | 1013.7 | |
| 20260507100018 | 14 | 0.0 | 0.0 | 0.00 | 0.00 | 0.00 | 37 | 1013.7 | |
| 20260507095038 | 14 | 0.0 | 0.0 | 0.00 | 0.00 | 0.00 | 37 | 1013.8 | |
| 20260507094015 | 15 | 0.0 | 0.0 | 0.00 | 0.00 | 0.00 | 36 | 1013.9 | |
| 20260507093015 | 15 | 0.0 | 1.6 | 0.00 | 0.00 | 0.00 | 36 | 1014.0 | |
| 20260507092016 | 15 | 0.0 | 0.0 | 0.00 | 0.00 | 0.00 | 36 | 1014.0 | |
| 20260507091015 | 15 | 0.0 | 0.0 | 0.00 | 0.00 | 0.00 | 36 | 1014.1 | |
| 20260507090035 | 15 | 0.0 | 1.6 | 0.00 | 0.00 | 0.00 | 36 | 1014.2 | |
| 20260507085017 | 15 | 0.0 | 0.0 | 0.00 | 0.00 | 0.00 | 35 | 1014.2 | |
| 20260507084015 | 15 | 0.0 | 1.6 | 0.00 | 0.00 | 0.00 | 35 | 1014.3 | |
| 20260507083015 | 15 | 0.0 | 0.0 | 0.00 | 0.00 | 0.00 | 34 | 1014.4 | |
| 20260507082015 | 15 | 0.0 | 0.0 | 0.00 | 0.00 | 0.00 | 34 | 1014.5 | |
| 20260507081035 | 15 | 0.0 | 1.6 | 0.00 | 0.00 | 0.00 | 34 | 1014.5 | |
| 20260507080015 | 15 | 0.0 | 1.6 | 0.00 | 0.00 | 0.00 | 33 | 1014.5 | |
| 20260507075017 | 16 | 0.0 | 0.0 | 0.00 | 0.00 | 0.00 | 33 | 1014.7 | |
| 20260507074017 | 16 | 0.0 | 0.0 | 0.00 | 0.00 | 0.00 | 32 | 1014.7 | |
| 20260507073017 | 16 | 0.0 | 0.0 | 0.00 | 0.00 | 0.00 | 32 | 1014.6 | |
| 20260507072037 | 16 | 0.0 | 0.0 | 0.00 | 0.00 | 0.00 | 31 | 1014.6 | |
| 20260507071017 | 16 | 0.0 | 0.0 | 0.00 | 0.00 | 0.00 | 31 | 1014.6 | |
| 20260507070110 | 16 | 0.0 | 0.0 | 0.00 | 0.00 | 0.00 | 31 | 1014.5 | |
| 20260507065517 | 16 | 0.0 | 1.6 | 0.00 | 0.00 | 0.00 | 31 | 1014.5 | |
| 20260507064516 | 16 | 0.0 | 0.0 | 0.00 | 0.00 | 0.00 | 30 | 1014.6 | |
| 20260507063538 | 16 | 99 | 0.0 | 0.0 | 0.00 | 0.00 | 0.00 | 30 | 1014.7 |
| 20260507062517 | 16 | 0.0 | 0.0 | 0.00 | 0.00 | 0.00 | 30 | 1014.5 | |
| 20260507061516 | 16 | 0.0 | 0.0 | 0.00 | 0.00 | 0.00 | 29 | 1014.5 | |
| 20260507060517 | 16 | 0.0 | 1.6 | 0.00 | 0.00 | 0.00 | 29 | 1014.6 | |
| 20260507055517 | 17 | 0.0 | 1.6 | 0.00 | 0.00 | 0.00 | 29 | 1014.5 | |
| 20260507054538 | 17 | 0.0 | 0.0 | 0.00 | 0.00 | 0.00 | 29 | 1014.6 | |
| 20260507053519 | 17 | 0.0 | 0.0 | 0.00 | 0.00 | 0.00 | 28 | 1014.7 | |
| 20260507052517 | 17 | 0.0 | 0.0 | 0.00 | 0.00 | 0.00 | 29 | 1014.6 | |
| 20260507051517 | 17 | 0.0 | 0.0 | 0.00 | 0.00 | 0.00 | 28 | 1014.6 | |
| 20260507050516 | 17 | 0.0 | 0.0 | 0.00 | 0.00 | 0.00 | 28 | 1014.5 | |
| 20260507045537 | 17 | 0.0 | 0.0 | 0.00 | 0.00 | 0.00 | 28 | 1014.4 | |
| 20260507044518 | 17 | 0.0 | 0.0 | 0.00 | 0.00 | 0.00 | 27 | 1014.5 | |
| 20260507043516 | 18 | 0.0 | 0.0 | 0.00 | 0.00 | 0.00 | 27 | 1014.5 | |
| 20260507042517 | 18 | 0.0 | 0.0 | 0.00 | 0.00 | 0.00 | 27 | 1014.5 | |
| 20260507041516 | 18 | 0.0 | 0.0 | 0.00 | 0.00 | 0.00 | 27 | 1014.5 | |
| 20260507040537 | 18 | 0.0 | 0.0 | 0.00 | 0.00 | 0.00 | 26 | 1014.3 | |
| 20260507035516 | 19 | 0.0 | 0.0 | 0.00 | 0.00 | 0.00 | 26 | 1014.2 | |
| 20260507034516 | 19 | 0.0 | 0.0 | 0.00 | 0.00 | 0.00 | 25 | 1014.1 | |
| 20260507033516 | 20 | 0.0 | 0.0 | 0.00 | 0.00 | 0.00 | 25 | 1014.0 | |
| 20260507032517 | 20 | 0.0 | 0.0 | 0.00 | 0.00 | 0.00 | 24 | 1014.1 | |
| 20260507031539 | 21 | 0.0 | 0.0 | 0.00 | 0.00 | 0.00 | 23 | 1014.0 | |
| 20260507030519 | 21 | 0.0 | 0.0 | 0.00 | 0.00 | 0.00 | 21 | 1014.0 | |
| 20260507025519 | 22 | 0.0 | 0.0 | 0.00 | 0.00 | 0.00 | 20 | 1014.0 | |
| 20260507024517 | 23 | 0.0 | 0.0 | 0.00 | 0.00 | 0.00 | 20 | 1013.9 | |
| 20260507023519 | 23 | 0.0 | 1.6 | 0.00 | 0.00 | 0.00 | 19 | 1014.0 | |
| 20260507022537 | 23 | 0.0 | 4.8 | 0.00 | 0.00 | 0.00 | 19 | 1013.9 | |
| 20260507021516 | 24 | 248 | 3.2 | 6.4 | 0.00 | 0.00 | 0.00 | 18 | 1013.8 |
| 20260507020516 | 25 | 270 | 3.2 | 9.7 | 0.00 | 0.00 | 0.00 | 18 | 1013.9 |
| 20260507015516 | 25 | 270 | 3.2 | 6.4 | 0.00 | 0.00 | 0.00 | 18 | 1013.9 |
| 20260507014516 | 26 | 0.0 | 8.0 | 0.00 | 0.00 | 0.00 | 18 | 1014.0 | |
| 20260507013536 | 26 | 293 | 1.6 | 11.3 | 0.00 | 0.00 | 0.00 | 17 | 1014.0 |
| 20260507012517 | 26 | 293 | 6.4 | 9.7 | 0.00 | 0.00 | 0.00 | 17 | 1014.0 |
| 20260507011516 | 26 | 270 | 4.8 | 12.9 | 0.00 | 0.00 | 0.00 | 17 | 1014.0 |
| 20260507010516 | 26 | 270 | 1.6 | 6.4 | 0.00 | 0.00 | 0.00 | 17 | 1014.0 |